createdAt,value
2023-04-02T00:01:23.235Z,98897.20
2023-04-02T00:03:59.707Z,98894.00
2023-04-02T00:06:32.773Z,98899.60
2023-04-02T00:09:26.173Z,98900.80
2023-04-02T00:11:56.805Z,98900.80
2023-04-02T00:14:27.554Z,98901.40
2023-04-02T00:16:56.321Z,98908.80
2023-04-02T00:19:45.519Z,98908.20
2023-04-02T00:22:27.129Z,98906.40
2023-04-02T00:24:56.177Z,98909.00
2023-04-02T00:27:24.188Z,98909.00
2023-04-02T00:29:53.286Z,98903.20
2023-04-02T00:32:26.634Z,98903.60
2023-04-02T00:34:55.151Z,98897.80
2023-04-02T00:37:28.241Z,98895.20
2023-04-02T00:40:02.328Z,98892.80
2023-04-02T00:42:31.119Z,98894.40
2023-04-02T00:45:00.220Z,98891.00
2023-04-02T00:47:36.291Z,98892.20
2023-04-02T00:50:04.546Z,98890.80
2023-04-02T00:52:33.240Z,98888.00
2023-04-02T00:55:10.467Z,98892.00
2023-04-02T00:57:38.568Z,98893.80
2023-04-02T01:00:24.920Z,98899.80
2023-04-02T01:03:18.022Z,98898.00
2023-04-02T01:05:51.472Z,98904.40
2023-04-02T01:08:22.470Z,98904.80
2023-04-02T01:11:35.337Z,98906.20
2023-04-02T01:14:21.497Z,98909.60
2023-04-02T01:17:03.953Z,98911.20
2023-04-02T01:20:01.928Z,98914.40
2023-04-02T01:22:51.261Z,98912.60
2023-04-02T01:25:25.157Z,98914.60
2023-04-02T01:28:19.786Z,98916.80
2023-04-02T01:30:58.259Z,98918.20
2023-04-02T01:33:34.725Z,98915.60
2023-04-02T01:36:16.747Z,98912.80
2023-04-02T01:39:07.749Z,98911.40
2023-04-02T01:42:09.928Z,98913.60
2023-04-02T01:44:41.795Z,98909.20
2023-04-02T01:47:26.753Z,98910.20
2023-04-02T01:50:33.388Z,98914.60
2023-04-02T01:53:04.088Z,98914.00
2023-04-02T01:55:42.658Z,98918.40
2023-04-02T01:58:14.278Z,98915.60
2023-04-02T02:00:56.650Z,98916.60
2023-04-02T02:03:26.170Z,98915.60
2023-04-02T02:05:54.116Z,98918.20
2023-04-02T02:08:39.652Z,98918.80
2023-04-02T02:11:12.169Z,98927.00
2023-04-02T02:13:42.106Z,98925.40
2023-04-02T02:16:12.779Z,98926.00
2023-04-02T02:18:41.940Z,98934.60
2023-04-02T02:21:09.909Z,98932.20
2023-04-02T02:23:38.299Z,98932.60
2023-04-02T02:26:06.859Z,98939.20
2023-04-02T02:28:36.354Z,98937.40
2023-04-02T02:31:20.023Z,98937.20
2023-04-02T02:33:53.083Z,98938.20
2023-04-02T02:36:35.500Z,98934.80
2023-04-02T02:39:17.037Z,98939.00
2023-04-02T02:41:59.982Z,98936.20
2023-04-02T02:44:36.140Z,98936.00
2023-04-02T02:47:09.586Z,98935.00
2023-04-02T02:49:50.028Z,98938.40
2023-04-02T02:52:22.169Z,98936.60
2023-04-02T02:55:06.473Z,98931.60
2023-04-02T02:57:49.267Z,98937.40
2023-04-02T03:00:19.609Z,98936.00
2023-04-02T03:02:47.888Z,98935.20
2023-04-02T03:05:21.811Z,98935.60
2023-04-02T03:07:54.703Z,98941.80
2023-04-02T03:10:44.391Z,98943.60
2023-04-02T03:13:21.997Z,98946.80
2023-04-02T03:16:09.961Z,98955.60
2023-04-02T03:18:51.366Z,98956.40
2023-04-02T03:21:39.519Z,98961.60
2023-04-02T03:24:16.114Z,98965.60
2023-04-02T03:26:48.110Z,98961.00
2023-04-02T03:29:30.813Z,98961.60
2023-04-02T03:32:15.102Z,98963.00
2023-04-02T03:34:52.249Z,98967.00
2023-04-02T03:37:33.187Z,98972.60
2023-04-02T03:40:17.427Z,98966.60
2023-04-02T03:42:45.633Z,98968.80
2023-04-02T03:45:25.782Z,98967.00
2023-04-02T03:51:37.976Z,98972.20
2023-04-02T03:54:14.118Z,98984.20
2023-04-02T03:56:47.745Z,98980.60
2023-04-02T03:59:36.121Z,98980.40
2023-04-02T04:02:07.585Z,98985.20
2023-04-02T04:04:40.940Z,98987.80
2023-04-02T04:07:19.908Z,98996.60
2023-04-02T04:09:50.685Z,98998.60
2023-04-02T04:12:39.906Z,99000.00
2023-04-02T04:15:33.165Z,99009.80
2023-04-02T04:18:34.942Z,99014.80
2023-04-02T04:21:38.928Z,99022.40
2023-04-02T04:24:23.830Z,99023.80
2023-04-02T04:27:37.523Z,99024.80
2023-04-02T04:30:23.030Z,99030.40
2023-04-02T04:33:01.995Z,99035.80
2023-04-02T04:36:27.886Z,99039.80
2023-04-02T04:39:05.964Z,99047.20
2023-04-02T04:41:43.205Z,99044.60
2023-04-02T04:44:22.696Z,99048.60
2023-04-02T04:47:23.567Z,99048.00
2023-04-02T04:50:01.278Z,99051.60
2023-04-02T04:52:36.646Z,99051.20
2023-04-02T04:55:27.282Z,99047.80
2023-04-02T04:58:04.154Z,99052.00
2023-04-02T05:00:56.329Z,99050.60
2023-04-02T05:03:27.753Z,99054.00
2023-04-02T05:06:24.853Z,99059.80
2023-04-02T05:08:56.441Z,99058.80
2023-04-02T05:11:37.842Z,99062.80
2023-04-02T05:14:17.448Z,99071.20
2023-04-02T05:16:59.649Z,99072.20
2023-04-02T05:19:54.210Z,99076.80
2023-04-02T05:23:13.630Z,99075.00
2023-04-02T05:25:52.316Z,99075.20
2023-04-02T05:28:35.151Z,99076.40
2023-04-02T05:31:13.556Z,99073.80
2023-04-02T05:33:50.329Z,99076.20
2023-04-02T05:36:21.726Z,99074.60
2023-04-02T05:38:55.852Z,99073.80
2023-04-02T05:41:41.449Z,99074.00
2023-04-02T05:44:16.053Z,99069.80
2023-04-02T05:46:50.298Z,99075.40
2023-04-02T05:49:31.192Z,99080.20
2023-04-02T05:52:04.854Z,99082.40
2023-04-02T05:54:36.815Z,99085.00
2023-04-02T05:57:09.365Z,99089.80
2023-04-02T05:59:58.483Z,99091.00
2023-04-02T06:02:39.925Z,99089.80
2023-04-02T06:05:22.677Z,99090.80
2023-04-02T06:07:55.550Z,99100.00
2023-04-02T06:10:31.088Z,99102.60
2023-04-02T06:13:03.882Z,99111.00
2023-04-02T06:15:47.988Z,99108.00
2023-04-02T06:18:28.429Z,99111.40
2023-04-02T06:21:01.275Z,99115.60
2023-04-02T06:23:59.650Z,99122.40
2023-04-02T06:26:41.778Z,99124.60
2023-04-02T06:29:39.965Z,99124.80
2023-04-02T06:32:14.569Z,99125.00
2023-04-02T06:34:45.646Z,99126.60
2023-04-02T06:37:38.448Z,99131.40
2023-04-02T06:41:13.218Z,99135.00
2023-04-02T06:44:05.460Z,99131.80
2023-04-02T06:46:52.513Z,99136.60
2023-04-02T06:49:31.113Z,99138.40
2023-04-02T06:52:05.494Z,99142.60
2023-04-02T06:54:36.222Z,99147.80
2023-04-02T06:57:16.556Z,99151.20
2023-04-02T06:59:49.808Z,99152.80
2023-04-02T07:02:42.066Z,99154.00
2023-04-02T07:05:14.299Z,99161.00
2023-04-02T07:07:49.588Z,99156.40
2023-04-02T07:10:20.430Z,99157.60
2023-04-02T07:12:54.601Z,99166.00
2023-04-02T07:15:25.586Z,99162.60
2023-04-02T07:17:59.221Z,99171.20
2023-04-02T07:20:41.925Z,99170.20
2023-04-02T07:23:21.086Z,99168.60
2023-04-02T07:25:56.246Z,99169.00
2023-04-02T07:28:24.519Z,99170.20
2023-04-02T07:31:01.872Z,99172.60
2023-04-02T07:33:30.828Z,99179.00
2023-04-02T07:36:14.913Z,99182.80
2023-04-02T07:38:54.390Z,99185.00
2023-04-02T07:41:23.434Z,99192.80
2023-04-02T07:43:59.513Z,99193.80
2023-04-02T07:46:33.288Z,99200.00
2023-04-02T07:49:01.781Z,99200.80
2023-04-02T07:51:37.600Z,99201.00
2023-04-02T07:54:10.280Z,99201.80
2023-04-02T07:56:44.573Z,99208.80
2023-04-02T07:59:15.489Z,99203.20
2023-04-02T08:01:49.899Z,99200.00
2023-04-02T08:04:23.858Z,99201.40
2023-04-02T08:06:54.532Z,99208.20
2023-04-02T08:09:28.039Z,99209.00
2023-04-02T08:12:03.986Z,99208.40
2023-04-02T08:14:35.296Z,99213.00
2023-04-02T08:17:11.387Z,99209.80
2023-04-02T08:19:54.819Z,99211.00
2023-04-02T08:22:35.254Z,99210.20
2023-04-02T08:25:12.105Z,99210.60
2023-04-02T08:27:56.834Z,99216.60
2023-04-02T08:30:36.994Z,99216.40
2023-04-02T08:33:12.837Z,99218.80
2023-04-02T08:35:41.238Z,99216.80
2023-04-02T08:38:14.797Z,99220.40
2023-04-02T08:40:50.233Z,99228.80
2023-04-02T08:43:46.368Z,99222.00
2023-04-02T08:46:38.657Z,99222.40
2023-04-02T08:49:15.696Z,99220.20
2023-04-02T08:51:46.513Z,99218.40
2023-04-02T08:54:20.302Z,99222.20
2023-04-02T08:57:31.598Z,99219.60
2023-04-02T09:00:42.491Z,99225.20
2023-04-02T09:03:14.321Z,99223.00
2023-04-02T09:05:42.975Z,99228.20
2023-04-02T09:08:22.190Z,99227.00
2023-04-02T09:11:02.445Z,99231.60
2023-04-02T09:13:31.360Z,99232.20
2023-04-02T09:16:11.073Z,99229.40
2023-04-02T09:18:39.680Z,99236.00
2023-04-02T09:21:31.559Z,99238.40
2023-04-02T09:23:59.653Z,99239.00
2023-04-02T09:26:32.161Z,99231.40
2023-04-02T09:29:05.131Z,99235.40
2023-04-02T09:31:39.400Z,99240.20
2023-04-02T09:34:30.414Z,99239.60
2023-04-02T09:37:14.366Z,99234.20
2023-04-02T09:39:45.006Z,99230.60
2023-04-02T09:42:34.397Z,99225.40
2023-04-02T09:45:14.986Z,99225.40
2023-04-02T09:47:45.559Z,99224.00
2023-04-02T09:50:28.028Z,99224.20
2023-04-02T09:52:56.336Z,99225.20
2023-04-02T09:55:30.808Z,99224.60
2023-04-02T09:58:20.531Z,99224.40
2023-04-02T10:00:52.617Z,99225.00
2023-04-02T10:03:30.167Z,99216.40
2023-04-02T10:06:18.206Z,99220.80
2023-04-02T10:08:54.256Z,99222.40
2023-04-02T10:11:43.786Z,99218.60
2023-04-02T10:14:26.175Z,99218.20
2023-04-02T10:16:56.771Z,99221.20
2023-04-02T10:19:29.841Z,99215.60
2023-04-02T10:22:06.281Z,99219.80
2023-04-02T10:24:34.440Z,99219.40
2023-04-02T10:27:11.854Z,99216.80
2023-04-02T10:29:44.782Z,99215.80
2023-04-02T10:32:36.072Z,99213.40
2023-04-02T10:35:16.510Z,99213.20
2023-04-02T10:38:43.080Z,99212.40
2023-04-02T10:42:10.013Z,99208.80
2023-04-02T10:44:53.588Z,99216.40
2023-04-02T10:47:33.062Z,99211.40
2023-04-02T10:50:04.016Z,99208.60
2023-04-02T10:53:21.453Z,99209.60
2023-04-02T10:56:03.532Z,99207.20
2023-04-02T10:58:33.600Z,99208.20
2023-04-02T11:01:08.105Z,99203.80
2023-04-02T11:04:05.737Z,99207.40
2023-04-02T11:06:44.005Z,99212.20
2023-04-02T11:09:22.383Z,99204.20
2023-04-02T11:11:56.303Z,99210.00
2023-04-02T11:14:26.053Z,99207.00
2023-04-02T11:16:58.263Z,99202.80
2023-04-02T11:19:33.530Z,99200.80
2023-04-02T11:22:17.196Z,99203.60
2023-04-02T11:24:46.955Z,99202.80
2023-04-02T11:27:16.175Z,99196.60
2023-04-02T11:29:46.256Z,99196.60
2023-04-02T11:32:43.019Z,99191.80
2023-04-02T11:35:28.004Z,99193.40
2023-04-02T11:37:58.129Z,99192.40
2023-04-02T11:40:46.958Z,99189.40
2023-04-02T11:43:59.798Z,99190.00
2023-04-02T11:46:33.653Z,99192.00
2023-04-02T11:49:33.816Z,99192.40
2023-04-02T11:52:12.373Z,99200.40
2023-04-02T11:54:40.867Z,99209.00
2023-04-02T11:57:28.368Z,99220.60
2023-04-02T11:59:56.680Z,99224.00
2023-04-02T12:02:39.690Z,99214.80
2023-04-02T12:05:43.567Z,99212.60
2023-04-02T12:08:44.296Z,99222.80
2023-04-02T12:11:44.166Z,99232.00
2023-04-02T12:14:38.018Z,99232.20
2023-04-02T12:17:27.189Z,99224.60
2023-04-02T12:20:03.586Z,99223.00
2023-04-02T12:22:36.941Z,99210.00
2023-04-02T12:25:40.129Z,99191.40
2023-04-02T12:28:14.737Z,99197.00
2023-04-02T12:30:42.937Z,99195.80
2023-04-02T12:33:21.031Z,99191.60
2023-04-02T12:35:53.068Z,99196.20
2023-04-02T12:38:25.076Z,99183.00
2023-04-02T12:40:57.876Z,99186.40
2023-04-02T12:43:32.849Z,99185.20
2023-04-02T12:46:08.356Z,99191.40
2023-04-02T12:48:56.033Z,99190.60
2023-04-02T12:51:28.410Z,99191.80
2023-04-02T12:53:59.898Z,99187.00
2023-04-02T12:56:28.117Z,99186.40
2023-04-02T12:58:57.632Z,99182.00
2023-04-02T13:01:29.810Z,99180.60
2023-04-02T13:04:04.580Z,99179.40
2023-04-02T13:06:33.834Z,99182.00
2023-04-02T13:09:06.747Z,99175.40
2023-04-02T13:11:39.481Z,99171.80
2023-04-02T13:14:17.512Z,99170.80
2023-04-02T13:16:45.920Z,99173.00
2023-04-02T13:19:27.656Z,99174.40
2023-04-02T13:21:56.529Z,99178.80
2023-04-02T13:24:29.544Z,99179.60
2023-04-02T13:27:02.339Z,99174.40
2023-04-02T13:29:34.735Z,99170.00
2023-04-02T13:32:06.706Z,99168.60
2023-04-02T13:34:34.799Z,99166.40
2023-04-02T13:37:02.872Z,99163.20
2023-04-02T13:39:30.985Z,99164.20
2023-04-02T13:42:03.400Z,99171.00
2023-04-02T13:44:35.842Z,99166.40
2023-04-02T13:47:04.138Z,99164.60
2023-04-02T13:49:32.351Z,99165.40
2023-04-02T13:52:03.413Z,99159.40
2023-04-02T13:54:40.850Z,99156.40
2023-04-02T13:57:09.175Z,99150.60
2023-04-02T13:59:43.219Z,99148.40
2023-04-02T14:02:17.772Z,99147.20
2023-04-02T14:04:51.119Z,99149.80
2023-04-02T14:07:45.291Z,99154.60
2023-04-02T14:10:58.187Z,99155.00
2023-04-02T14:13:33.173Z,99150.60
2023-04-02T14:16:18.659Z,99146.80
2023-04-02T14:19:02.170Z,99154.00
2023-04-02T14:21:43.213Z,99162.80
2023-04-02T14:24:42.174Z,99165.60
2023-04-02T14:27:32.823Z,99168.00
2023-04-02T14:30:29.682Z,99164.40
2023-04-02T14:33:09.927Z,99157.00
2023-04-02T14:35:39.027Z,99154.40
2023-04-02T14:38:32.017Z,99148.20
2023-04-02T14:41:05.708Z,99149.60
2023-04-02T14:43:45.333Z,99147.80
2023-04-02T14:46:13.436Z,99144.20
2023-04-02T14:48:57.416Z,99151.60
2023-04-02T14:51:45.417Z,99153.00
2023-04-02T14:54:21.358Z,99154.80
2023-04-02T14:56:52.756Z,99150.00
2023-04-02T14:59:23.349Z,99146.80
2023-04-02T15:01:55.623Z,99150.80
2023-04-02T15:04:28.139Z,99154.20
2023-04-02T15:06:59.584Z,99158.60
2023-04-02T15:09:34.318Z,99153.80
2023-04-02T15:12:23.769Z,99157.20
2023-04-02T15:14:55.529Z,99157.80
2023-04-02T15:17:23.543Z,99155.80
2023-04-02T15:20:07.979Z,99157.20
2023-04-02T15:22:41.306Z,99158.00
2023-04-02T15:25:40.804Z,99156.00
2023-04-02T15:28:16.591Z,99164.20
2023-04-02T15:30:45.197Z,99162.00
2023-04-02T15:33:38.285Z,99163.80
2023-04-02T15:36:21.875Z,99165.40
2023-04-02T15:39:00.432Z,99170.40
2023-04-02T15:41:33.761Z,99175.20
2023-04-02T15:44:16.969Z,99175.20
2023-04-02T15:47:07.920Z,99176.60
2023-04-02T15:49:46.374Z,99175.80
2023-04-02T15:52:35.399Z,99180.40
2023-04-02T15:55:28.695Z,99178.60
2023-04-02T15:58:39.773Z,99185.60
2023-04-02T16:01:19.884Z,99189.80
2023-04-02T16:04:09.923Z,99192.20
2023-04-02T16:06:53.242Z,99199.00
2023-04-02T16:09:47.406Z,99195.20
2023-04-02T16:12:19.247Z,99199.60
2023-04-02T16:14:50.121Z,99202.80
2023-04-02T16:17:29.467Z,99205.00
2023-04-02T16:20:09.410Z,99213.60
2023-04-02T16:22:49.746Z,99218.20
2023-04-02T16:25:30.920Z,99224.80
2023-04-02T16:28:08.408Z,99230.20
2023-04-02T16:30:57.158Z,99228.40
2023-04-02T16:33:36.989Z,99230.80
2023-04-02T16:36:07.676Z,99232.40
2023-04-02T16:38:57.431Z,99234.40
2023-04-02T16:41:34.380Z,99236.00
2023-04-02T16:44:23.144Z,99239.00
2023-04-02T16:47:00.844Z,99240.80
2023-04-02T16:49:43.792Z,99238.80
2023-04-02T16:52:31.947Z,99247.00
2023-04-02T16:55:23.692Z,99245.80
2023-04-02T16:58:19.666Z,99246.80
2023-04-02T17:01:11.844Z,99247.60
2023-04-02T17:03:58.391Z,99245.60
2023-04-02T17:06:27.993Z,99253.40
2023-04-02T17:09:11.468Z,99254.60
2023-04-02T17:12:01.301Z,99256.80
2023-04-02T17:14:32.891Z,99258.20
2023-04-02T17:17:03.980Z,99254.60
2023-04-02T17:19:32.489Z,99263.00
2023-04-02T17:22:05.243Z,99258.00
2023-04-02T17:24:42.119Z,99262.00
2023-04-02T17:27:32.520Z,99267.20
2023-04-02T17:30:04.587Z,99274.80
2023-04-02T17:32:33.238Z,99274.40
2023-04-02T17:35:37.395Z,99276.40
2023-04-02T17:38:20.866Z,99280.00
2023-04-02T17:40:54.359Z,99286.20
2023-04-02T17:43:55.935Z,99288.80
2023-04-02T17:47:09.372Z,99288.00
2023-04-02T17:50:12.719Z,99290.60
2023-04-02T17:52:53.560Z,99297.00
2023-04-02T17:55:27.333Z,99306.60
2023-04-02T17:58:09.823Z,99306.60
2023-04-02T18:00:58.264Z,99315.00
2023-04-02T18:03:45.341Z,99319.20
2023-04-02T18:06:28.804Z,99317.20
2023-04-02T18:09:14.713Z,99325.20
2023-04-02T18:12:05.902Z,99326.00
2023-04-02T18:15:05.148Z,99328.40
2023-04-02T18:17:43.229Z,99334.80
2023-04-02T18:20:37.660Z,99338.20
2023-04-02T18:23:32.297Z,99338.60
2023-04-02T18:26:22.543Z,99341.60
2023-04-02T18:29:08.194Z,99341.80
2023-04-02T18:31:58.096Z,99344.00
2023-04-02T18:34:30.445Z,99345.60
2023-04-02T18:37:01.589Z,99350.20
2023-04-02T18:39:44.838Z,99349.80
2023-04-02T18:42:18.714Z,99352.20
2023-04-02T18:45:09.078Z,99355.40
2023-04-02T18:47:37.217Z,99364.80
2023-04-02T18:50:16.910Z,99362.60
2023-04-02T18:52:50.399Z,99362.60
2023-04-02T18:55:20.969Z,99361.40
2023-04-02T18:58:05.757Z,99367.00
2023-04-02T19:00:43.253Z,99369.40
2023-04-02T19:03:27.148Z,99374.80
2023-04-02T19:06:06.059Z,99373.40
2023-04-02T19:09:32.393Z,99375.20
2023-04-02T19:12:10.024Z,99382.80
2023-04-02T19:14:44.079Z,99382.40
2023-04-02T19:17:15.375Z,99386.00
2023-04-02T19:19:53.422Z,99384.40
2023-04-02T19:23:12.405Z,99387.20
2023-04-02T19:25:53.187Z,99386.00
2023-04-02T19:29:06.525Z,99383.20
2023-04-02T19:31:44.865Z,99387.60
2023-04-02T19:34:28.087Z,99387.20
2023-04-02T19:37:41.393Z,99392.00
2023-04-02T19:40:33.132Z,99396.60
2023-04-02T19:43:01.529Z,99392.40
2023-04-02T19:45:38.960Z,99393.00
2023-04-02T19:48:24.675Z,99392.80
2023-04-02T19:50:53.129Z,99394.60
2023-04-02T19:53:26.721Z,99402.60
2023-04-02T19:55:57.551Z,99397.20
2023-04-02T19:58:37.237Z,99400.20
2023-04-02T20:01:08.374Z,99402.40
2023-04-02T20:03:44.032Z,99410.20
2023-04-02T20:06:15.292Z,99415.40
2023-04-02T20:08:46.648Z,99410.20
2023-04-02T20:11:25.215Z,99412.60
2023-04-02T20:13:53.986Z,99410.60
2023-04-02T20:16:22.502Z,99411.40
2023-04-02T20:18:56.606Z,99416.40
2023-04-02T20:21:27.746Z,99415.40
2023-04-02T20:24:00.554Z,99420.40
2023-04-02T20:26:37.095Z,99422.20
2023-04-02T20:29:08.265Z,99427.80
2023-04-02T20:31:41.741Z,99422.60
2023-04-02T20:34:13.101Z,99428.60
2023-04-02T20:36:45.731Z,99429.60
2023-04-02T20:39:19.431Z,99428.20
2023-04-02T20:42:01.072Z,99432.00
2023-04-02T20:44:29.672Z,99434.20
2023-04-02T20:47:09.425Z,99432.80
2023-04-02T20:49:42.929Z,99427.20
2023-04-02T20:52:16.020Z,99434.80
2023-04-02T20:54:47.092Z,99431.20
2023-04-02T20:57:28.364Z,99427.40
2023-04-02T20:59:58.498Z,99432.20
2023-04-02T21:02:38.236Z,99435.60
2023-04-02T21:05:18.112Z,99437.40
2023-04-02T21:07:49.739Z,99442.20
2023-04-02T21:10:21.500Z,99446.00
2023-04-02T21:13:07.267Z,99447.40
2023-04-02T21:15:43.436Z,99450.00
2023-04-02T21:18:23.222Z,99446.60
2023-04-02T21:21:05.430Z,99445.60
2023-04-02T21:23:36.806Z,99446.20
2023-04-02T21:26:08.574Z,99450.00
2023-04-02T21:28:37.269Z,99453.40
2023-04-02T21:31:24.788Z,99448.40
2023-04-02T21:34:00.512Z,99446.20
2023-04-02T21:36:36.021Z,99448.20
2023-04-02T21:39:09.600Z,99444.00
2023-04-02T21:41:39.594Z,99446.60
2023-04-02T21:44:13.652Z,99446.60
2023-04-02T21:46:44.715Z,99441.20
2023-04-02T21:49:17.075Z,99438.00
2023-04-02T21:51:53.022Z,99441.40
2023-04-02T21:54:23.684Z,99442.00
2023-04-02T21:56:54.443Z,99450.40
2023-04-02T21:59:26.129Z,99452.80
2023-04-02T22:02:00.181Z,99450.20
2023-04-02T22:04:33.488Z,99452.00
2023-04-02T22:07:10.640Z,99449.00
2023-04-02T22:09:44.590Z,99448.80
2023-04-02T22:12:12.827Z,99448.80
2023-04-02T22:14:57.551Z,99452.20
2023-04-02T22:17:37.505Z,99449.40
2023-04-02T22:20:09.055Z,99451.60
2023-04-02T22:22:40.351Z,99444.20
2023-04-02T22:25:12.118Z,99449.40
2023-04-02T22:27:40.400Z,99442.00
2023-04-02T22:30:19.670Z,99443.20
2023-04-02T22:33:07.592Z,99439.00
2023-04-02T22:35:41.960Z,99440.60
2023-04-02T22:38:10.033Z,99441.20
2023-04-02T22:40:46.246Z,99438.00
2023-04-02T22:43:21.749Z,99445.00
2023-04-02T22:45:49.928Z,99446.40
2023-04-02T22:48:27.463Z,99451.40
2023-04-02T22:51:01.092Z,99449.00
2023-04-02T22:53:36.619Z,99444.00
2023-04-02T22:56:12.698Z,99446.00
2023-04-02T22:58:40.973Z,99446.80
2023-04-02T23:01:20.238Z,99450.40
2023-04-02T23:03:48.614Z,99456.80
2023-04-02T23:06:17.956Z,99447.20
2023-04-02T23:08:55.139Z,99448.20
2023-04-02T23:11:32.819Z,99454.00
2023-04-02T23:14:01.168Z,99454.20
2023-04-02T23:16:52.810Z,99460.60
2023-04-02T23:19:21.213Z,99455.20
2023-04-02T23:21:49.705Z,99447.20
2023-04-02T23:24:24.856Z,99440.60
2023-04-02T23:26:56.050Z,99437.00
2023-04-02T23:29:24.304Z,99439.00
2023-04-02T23:31:52.487Z,99435.20
2023-04-02T23:34:31.790Z,99437.60
2023-04-02T23:36:59.942Z,99442.20
2023-04-02T23:39:28.110Z,99439.20
2023-04-02T23:42:01.733Z,99434.20
2023-04-02T23:44:33.024Z,99439.00
2023-04-02T23:47:03.691Z,99438.20
2023-04-02T23:49:37.934Z,99440.20
2023-04-02T23:52:15.627Z,99441.80
2023-04-02T23:54:49.022Z,99443.80
2023-04-02T23:57:18.047Z,99437.80
